Time;durP1;ratioP1;P1;durP2;ratioP2;P2;SDS_P1;SDS_P2;PMS_P1;PMS_P2;Temp;Humidity;BMP_temperature;BMP_pressure;BME280_temperature;BME280_humidity;BME280_pressure;Samples;Min_cycle;Max_cycle;Signal;HPM_P1;HPM_P2
2022/07/31 06:52:44;;;;;;;0.85;0.60;;;19.80;99.90;;;;;;4864491;24;20056;-87
2022/07/31 07:17:11;;;;;;;1.05;0.90;;;20.50;99.90;;;;;;4753393;30;20519;-85
2022/07/31 07:19:45;;;;;;;2.42;0.90;;;20.50;99.90;;;;;;4751171;30;20052;-85
2022/07/31 07:22:11;;;;;;;0.88;0.77;;;20.60;99.90;;;;;;4751313;30;20063;-86
2022/07/31 07:24:37;;;;;;;1.38;1.00;;;20.60;99.90;;;;;;4751542;30;20483;-85
2022/07/31 07:27:03;;;;;;;2.20;0.85;;;20.60;99.90;;;;;;4765184;30;20044;-85
2022/07/31 07:29:31;;;;;;;1.17;0.80;;;20.70;99.90;;;;;;4741537;30;20060;-86
2022/07/31 07:32:04;;;;;;;2.33;1.00;;;20.70;99.90;;;;;;4737692;30;20045;-86
2022/07/31 07:34:29;;;;;;;1.25;1.00;;;20.80;99.90;;;;;;4751339;30;20048;-85
2022/07/31 07:36:58;;;;;;;1.10;0.75;;;20.80;99.90;;;;;;4741485;30;20052;-86
2022/07/31 07:39:30;;;;;;;1.30;0.80;;;20.90;99.90;;;;;;4751721;30;20045;-85
2022/07/31 07:42:01;;;;;;;1.58;1.00;;;20.90;99.90;;;;;;4738492;30;20068;-86
2022/07/31 07:44:27;;;;;;;2.42;0.90;;;21.00;99.90;;;;;;4719668;30;20072;-85
2022/07/31 07:46:53;;;;;;;2.40;1.05;;;21.00;99.90;;;;;;4734258;30;20525;-85
2022/07/31 07:49:24;;;;;;;2.35;0.80;;;21.10;99.90;;;;;;4734075;30;20087;-85
2022/07/31 07:51:50;;;;;;;1.42;0.80;;;21.10;99.90;;;;;;4734199;30;20053;-85
2022/07/31 07:54:16;;;;;;;3.28;1.20;;;21.20;99.90;;;;;;4734096;30;20044;-86
2022/07/31 07:56:44;;;;;;;2.28;0.95;;;21.20;99.90;;;;;;4737744;30;20052;-85
2022/07/31 07:59:11;;;;;;;2.95;0.90;;;21.20;99.90;;;;;;4750719;30;20482;-86
2022/07/31 08:01:37;;;;;;;1.27;0.80;;;21.30;99.90;;;;;;4737890;30;20083;-85
2022/07/31 08:04:03;;;;;;;3.50;0.98;;;21.30;99.90;;;;;;4734393;30;20055;-86
2022/07/31 08:06:28;;;;;;;2.40;1.10;;;21.40;99.90;;;;;;4735273;30;20049;-86
2022/07/31 08:09:05;;;;;;;2.45;1.02;;;21.40;99.90;;;;;;4735295;30;20044;-86
2022/07/31 08:11:38;;;;;;;1.00;0.90;;;21.50;99.90;;;;;;4735804;30;20384;-85
2022/07/31 08:14:14;;;;;;;;;;;;;;;;;;;;;
2022/07/31 08:16:40;;;;;;;1.35;0.98;;;21.50;99.90;;;;;;4758140;24;20056;-86
2022/07/31 08:19:21;;;;;;;;;;;;;;;;;;;;;
2022/07/31 08:22:25;;;;;;;2.33;1.33;;;21.80;99.90;;;;;;4749516;30;20486;-87
2022/07/31 08:32:16;;;;;;;4.68;1.55;;;21.80;99.90;;;;;;4734244;30;20557;-85
2022/07/31 08:34:42;;;;;;;2.45;1.58;;;21.80;99.90;;;;;;4733801;30;20048;-85
2022/07/31 08:37:08;;;;;;;2.20;1.50;;;21.80;99.90;;;;;;4734539;30;20057;-87
2022/07/31 08:39:36;;;;;;;2.80;1.10;;;21.80;99.90;;;;;;4739385;30;20105;-87
2022/07/31 08:42:09;;;;;;;1.58;0.98;;;21.90;99.90;;;;;;4744849;30;20459;-86
2022/07/31 08:44:36;;;;;;;3.30;1.25;;;21.60;99.90;;;;;;4750694;30;20052;-86
2022/07/31 08:47:05;;;;;;;3.28;1.80;;;22.00;99.90;;;;;;4734515;30;20063;-85
2022/07/31 08:49:35;;;;;;;4.30;1.35;;;21.90;99.90;;;;;;4748575;30;20084;-85
2022/07/31 08:52:01;;;;;;;1.48;1.05;;;21.90;99.90;;;;;;4748115;30;20105;-85
2022/07/31 08:54:28;;;;;;;1.85;1.05;;;21.90;99.90;;;;;;4749656;30;20059;-85
2022/07/31 08:56:54;;;;;;;2.80;1.38;;;21.90;99.90;;;;;;4751885;30;20048;-84
2022/07/31 08:59:20;;;;;;;3.63;1.00;;;21.80;99.90;;;;;;4750255;30;20144;-85
2022/07/31 09:01:46;;;;;;;2.55;1.00;;;21.80;99.90;;;;;;4752876;30;20055;-84
2022/07/31 09:04:12;;;;;;;1.50;1.00;;;21.90;99.90;;;;;;4750200;30;20052;-83
2022/07/31 09:06:38;;;;;;;4.57;1.58;;;21.80;99.90;;;;;;4751146;30;20058;-85
2022/07/31 09:09:05;;;;;;;3.58;1.60;;;21.80;99.90;;;;;;4749117;30;20056;-84
2022/07/31 09:11:30;;;;;;;3.40;1.52;;;21.80;99.90;;;;;;4744647;30;20567;-84
2022/07/31 09:13:59;;;;;;;1.92;1.48;;;21.70;99.90;;;;;;4736529;30;20048;-84
2022/07/31 09:16:25;;;;;;;3.92;1.92;;;21.70;99.90;;;;;;4733001;30;20404;-84
2022/07/31 09:19:03;;;;;;;2.97;1.38;;;21.60;99.90;;;;;;4742009;30;20075;-84
2022/07/31 09:21:39;;;;;;;2.63;1.20;;;21.50;99.90;;;;;;4736918;30;20044;-84
2022/07/31 09:24:06;;;;;;;3.50;1.20;;;21.50;99.90;;;;;;4733784;30;20106;-84
2022/07/31 09:26:33;;;;;;;2.40;1.40;;;21.40;99.90;;;;;;4741183;30;20056;-83
2022/07/31 09:29:00;;;;;;;2.30;1.67;;;21.40;99.90;;;;;;4750005;30;20059;-85
2022/07/31 09:31:34;;;;;;;7.35;1.90;;;21.40;99.90;;;;;;4749439;30;20059;-84
2022/07/31 09:34:00;;;;;;;4.63;2.05;;;21.50;99.90;;;;;;4746732;30;20048;-85
2022/07/31 09:52:47;;;;;;;3.63;2.25;;;21.20;99.90;;;;;;4659976;28;20064;-89
2022/07/31 09:58:56;;;;;;;4.53;2.40;;;21.20;99.90;;;;;;4710677;30;20129;-90
2022/07/31 10:01:39;;;;;;;3.58;2.15;;;21.10;99.90;;;;;;4684575;30;20049;-92
2022/07/31 10:04:06;;;;;;;4.00;2.50;;;21.10;99.90;;;;;;4695784;30;20065;-91
2022/07/31 10:06:34;;;;;;;7.18;2.50;;;21.00;99.90;;;;;;4682607;30;20524;-88
2022/07/31 10:09:03;;;;;;;3.92;1.90;;;20.90;99.90;;;;;;4683560;30;20065;-91
2022/07/31 10:11:30;;;;;;;2.88;1.63;;;20.70;99.90;;;;;;4694433;30;20057;-88
2022/07/31 10:14:05;;;;;;;2.95;1.80;;;20.90;99.90;;;;;;4698574;30;20463;-88
2022/07/31 10:16:40;;;;;;;3.03;1.67;;;20.80;99.90;;;;;;4738166;24;20097;-86
2022/07/31 10:36:53;;;;;;;4.95;2.10;;;20.70;99.90;;;;;;5106576;24;20053;-89
2022/07/31 10:59:26;;;;;;;2.88;1.85;;;20.50;99.90;;;;;;5705242;24;20060;-86
2022/07/31 11:02:27;;;;;;;3.53;1.85;;;20.50;99.90;;;;;;4787368;24;20038;-87
2022/07/31 11:23:15;;;;;;;;;;;;;;;;;;;;;
2022/07/31 12:23:45;;;;;;;3.55;2.33;;;19.60;99.90;;;;;;4734369;30;20061;-88
2022/07/31 12:32:03;;;;;;;;;;;19.40;99.90;;;;;;4733841;30;20470;-89
2022/07/31 12:51:18;;;;;;;;;;;19.50;99.90;;;;;;5124844;24;20125;-88
2022/07/31 12:54:56;;;;;;;;;;;;;;;;;;;;;
2022/07/31 13:00:10;;;;;;;;;;;19.50;99.90;;;;;;4897623;24;20060;-86
2022/07/31 13:08:31;;;;;;;2.60;1.90;;;19.60;99.90;;;;;;4824267;24;20316;-89
2022/07/31 13:11:40;;;;;;;3.88;1.95;;;19.50;99.90;;;;;;4879905;24;20106;-87
2022/07/31 13:17:43;;;;;;;3.83;2.38;;;19.50;99.90;;;;;;4715288;30;20096;-92
2022/07/31 13:33:13;;;;;;;;;;;19.60;99.90;;;;;;5058649;24;20096;-91
2022/07/31 14:04:29;;;;;;;2.65;1.38;;;19.70;99.90;;;;;;4732275;24;20530;-88
2022/07/31 14:07:28;;;;;;;1.80;1.23;;;19.70;99.90;;;;;;4747663;30;20052;-86
2022/07/31 14:13:39;;;;;;;;;;;;;;;;;;;;;
2022/07/31 14:16:59;;;;;;;1.50;0.90;;;20.00;99.90;;;;;;4751481;30;20064;-88
2022/07/31 14:19:31;;;;;;;1.15;0.90;;;20.10;99.90;;;;;;4751284;30;20101;-86
2022/07/31 14:32:17;;;;;;;1.35;0.70;;;20.20;99.90;;;;;;4751143;30;20469;-85
2022/07/31 14:34:43;;;;;;;2.08;0.90;;;20.20;99.90;;;;;;4752084;30;20056;-93
2022/07/31 14:37:09;;;;;;;2.22;0.90;;;20.20;99.90;;;;;;4752426;30;20101;-92
2022/07/31 14:39:35;;;;;;;0.80;0.60;;;20.10;99.90;;;;;;4754459;30;20123;-85
2022/07/31 14:42:01;;;;;;;0.60;0.50;;;20.10;99.90;;;;;;4754044;30;20444;-92
2022/07/31 14:44:26;;;;;;;1.20;0.40;;;20.10;99.90;;;;;;4751420;30;20512;-86
2022/07/31 14:46:55;;;;;;;1.90;0.50;;;20.10;99.90;;;;;;4751580;30;20051;-95
2022/07/31 14:49:21;;;;;;;1.00;0.45;;;20.10;99.90;;;;;;4735720;30;20064;-84
2022/07/31 14:51:47;;;;;;;0.57;0.40;;;20.20;99.90;;;;;;4736869;30;20056;-85
2022/07/31 14:54:12;;;;;;;2.28;0.43;;;20.30;99.90;;;;;;4738093;30;20510;-87
2022/07/31 14:56:41;;;;;;;0.90;0.40;;;20.40;99.90;;;;;;4738169;30;20413;-90
2022/07/31 14:59:07;;;;;;;0.60;0.40;;;20.60;99.90;;;;;;4745543;30;20056;-85
2022/07/31 15:01:32;;;;;;;1.02;0.63;;;20.60;99.90;;;;;;4752757;30;20048;-92
2022/07/31 15:03:58;;;;;;;0.82;0.50;;;20.70;99.90;;;;;;4757269;30;20096;-85
2022/07/31 15:06:24;;;;;;;1.13;0.60;;;20.70;99.90;;;;;;4744380;30;20399;-90
2022/07/31 15:08:49;;;;;;;1.00;0.60;;;20.80;99.90;;;;;;4750832;30;20407;-88
2022/07/31 15:11:15;;;;;;;1.20;0.85;;;20.80;99.90;;;;;;4754259;30;20052;-89
2022/07/31 15:13:41;;;;;;;1.65;0.68;;;20.90;99.90;;;;;;4738500;30;20060;-87
2022/07/31 15:17:30;;;;;;;1.10;0.63;;;20.80;99.90;;;;;;4736115;30;20066;-88
2022/07/31 15:40:09;;;;;;;0.80;0.60;;;20.40;99.90;;;;;;5229393;24;20056;-89
2022/07/31 16:50:16;;;;;;;2.65;1.10;;;20.70;99.90;;;;;;4796576;24;20052;-89
2022/07/31 16:59:25;;;;;;;5.72;2.00;;;20.60;99.90;;;;;;4863099;24;20030;-88
2022/07/31 17:02:20;;;;;;;3.40;1.40;;;20.80;99.90;;;;;;4876366;24;20049;-91
2022/07/31 17:09:59;;;;;;;;;;;;;;;;;;;;;
2022/07/31 17:17:12;;;;;;;;;;;;;;;;;;;;;
2022/07/31 17:23:15;;;;;;;;;;;;;;;;;;;;;
2022/07/31 17:25:56;;;;;;;1.92;1.00;;;20.40;99.90;;;;;;4688434;30;20496;-86
2022/07/31 17:28:30;;;;;;;3.53;2.30;;;20.30;99.90;;;;;;4697816;30;20534;-87
2022/07/31 17:31:01;;;;;;;0.77;0.50;;;20.40;99.90;;;;;;4688885;30;20148;-87
2022/07/31 17:34:34;;;;;;;2.63;0.30;;;20.40;99.90;;;;;;4704431;30;20113;-90
2022/07/31 17:37:11;;;;;;;0.95;0.38;;;20.50;99.90;;;;;;4646139;30;20464;-89
2022/07/31 17:48:53;;;;;;;0.10;0.10;;;20.00;99.90;;;;;;4614993;31;20565;-88
2022/07/31 17:51:43;;;;;;;0.20;0.20;;;19.90;99.90;;;;;;4670256;24;20051;-89
2022/07/31 17:54:18;;;;;;;0.10;0.10;;;20.00;99.90;;;;;;4753372;30;20064;-88
2022/07/31 18:00:48;;;;;;;0.15;0.10;;;20.10;99.90;;;;;;4748938;30;20496;-93
2022/07/31 18:04:12;;;;;;;0.90;0.10;;;20.00;99.90;;;;;;4767765;30;20060;-89
2022/07/31 18:15:19;;;;;;;0.30;0.10;;;19.80;99.90;;;;;;4948092;24;19947;-86
2022/07/31 18:21:01;;;;;;;0.10;0.00;;;19.60;99.90;;;;;;4744402;30;20522;-86
2022/07/31 18:23:53;;;;;;;0.63;0.03;;;19.60;99.90;;;;;;4736856;30;20664;-87
2022/07/31 18:37:01;;;;;;;;;;;;;;;;;;;;;
2022/07/31 18:39:49;;;;;;;;;;;;;;;;;;;;;
2022/07/31 18:42:36;;;;;;;0.13;0.10;;;19.20;99.90;;;;;;4714411;30;20071;-86
2022/07/31 18:45:32;;;;;;;0.10;0.08;;;19.30;99.90;;;;;;4717013;30;20049;-86
2022/07/31 18:48:22;;;;;;;;;;;;;;;;;;;;;
2022/07/31 18:51:17;;;;;;;0.30;0.10;;;19.30;99.90;;;;;;4716459;30;20065;-86
2022/07/31 18:53:48;;;;;;;0.10;0.10;;;19.30;99.90;;;;;;4713858;30;20061;-86
2022/07/31 18:56:23;;;;;;;0.00;0.00;;;19.40;99.90;;;;;;4715731;30;20063;-86
2022/07/31 18:58:52;;;;;;;;;;;19.40;99.90;;;;;;4716747;30;20061;-86
2022/07/31 19:01:26;;;;;;;0.30;0.00;;;19.40;99.90;;;;;;4716086;30;20002;-87
2022/07/31 19:03:57;;;;;;;0.57;0.10;;;19.30;99.90;;;;;;4716071;30;20060;-88
2022/07/31 19:10:22;;;;;;;0.57;0.20;;;19.40;99.90;;;;;;4774856;24;20110;-86
2022/07/31 19:12:48;;;;;;;0.32;0.20;;;19.40;99.90;;;;;;4741048;30;20562;-91
2022/07/31 19:15:14;;;;;;;0.30;0.20;;;19.30;99.90;;;;;;4753211;30;20143;-90
2022/07/31 19:17:43;;;;;;;1.02;0.30;;;19.30;99.90;;;;;;4770922;30;20517;-89
2022/07/31 19:20:12;;;;;;;0.98;0.50;;;19.30;99.90;;;;;;4761086;30;20044;-89
2022/07/31 19:22:38;;;;;;;1.95;0.40;;;19.30;99.90;;;;;;4752639;30;20048;-89
2022/07/31 19:25:07;;;;;;;1.05;0.20;;;19.30;99.90;;;;;;4752953;30;20516;-90
2022/07/31 19:27:33;;;;;;;1.63;0.50;;;19.30;99.90;;;;;;4745189;30;20063;-88
2022/07/31 19:29:58;;;;;;;1.23;0.70;;;19.30;99.90;;;;;;4752692;30;20052;-89
2022/07/31 19:32:26;;;;;;;1.13;0.77;;;19.40;99.90;;;;;;4751730;30;20048;-90
2022/07/31 19:34:52;;;;;;;1.50;0.60;;;19.40;99.90;;;;;;4738505;30;20053;-91
2022/07/31 19:37:18;;;;;;;1.10;0.45;;;19.40;99.90;;;;;;4740193;30;20499;-90
2022/07/31 19:39:47;;;;;;;0.70;0.50;;;19.40;99.90;;;;;;4749183;30;20521;-89
2022/07/31 19:42:13;;;;;;;2.17;0.80;;;19.30;99.90;;;;;;4751917;30;20403;-90
2022/07/31 19:44:39;;;;;;;1.38;0.45;;;19.30;99.90;;;;;;4740336;30;20061;-89
2022/07/31 19:47:07;;;;;;;0.98;0.40;;;19.30;99.90;;;;;;4748819;30;20063;-90
2022/07/31 19:49:33;;;;;;;1.30;0.50;;;19.20;99.90;;;;;;4740825;30;20049;-91
2022/07/31 19:52:06;;;;;;;2.45;0.47;;;19.20;99.90;;;;;;4740233;30;20048;-89
2022/07/31 19:54:31;;;;;;;0.20;0.10;;;19.20;99.90;;;;;;4751443;30;20067;-92
2022/07/31 19:56:57;;;;;;;0.65;0.10;;;19.30;99.90;;;;;;4751428;30;20052;-89
2022/07/31 19:59:23;;;;;;;0.32;0.10;;;19.30;99.90;;;;;;4750264;30;20055;-84
2022/07/31 20:01:49;;;;;;;0.10;0.10;;;19.30;99.90;;;;;;4736909;30;20502;-86
2022/07/31 20:04:45;;;;;;;0.00;0.00;;;19.10;99.90;;;;;;4752525;30;20479;-85
2022/07/31 20:15:08;;;;;;;0.20;0.10;;;18.90;99.90;;;;;;4723831;24;20063;-88
2022/07/31 20:18:02;;;;;;;0.57;0.10;;;18.90;99.90;;;;;;4747421;30;20047;-88
2022/07/31 20:20:40;;;;;;;0.05;0.00;;;18.90;99.90;;;;;;4871206;24;20479;-88
2022/07/31 20:23:08;;;;;;;1.05;0.17;;;18.80;99.90;;;;;;4752775;30;20086;-87
2022/07/31 20:26:23;;;;;;;0.32;0.20;;;18.80;99.90;;;;;;4760843;30;20059;-87
2022/07/31 20:29:21;;;;;;;0.10;0.10;;;19.00;99.90;;;;;;4728778;30;20522;-89
2022/07/31 20:32:12;;;;;;;0.20;0.20;;;18.80;99.90;;;;;;4718631;30;20060;-87
2022/07/31 20:34:47;;;;;;;3.08;0.40;;;19.30;99.90;;;;;;4737291;30;20048;-86
2022/07/31 20:37:27;;;;;;;1.97;0.30;;;18.80;99.90;;;;;;4759716;30;20398;-88
2022/07/31 20:40:14;;;;;;;0.40;0.28;;;18.80;99.90;;;;;;4746340;30;20316;-87
2022/07/31 20:42:51;;;;;;;0.45;0.30;;;18.70;99.90;;;;;;4768449;30;20058;-88
2022/07/31 20:45:27;;;;;;;2.05;0.28;;;18.70;99.90;;;;;;4742427;30;20608;-88
2022/07/31 20:48:33;;;;;;;0.45;0.30;;;18.70;99.90;;;;;;4753763;30;20557;-87
2022/07/31 20:51:28;;;;;;;0.52;0.30;;;18.70;99.90;;;;;;4751692;30;20044;-87
2022/07/31 20:53:54;;;;;;;0.10;0.10;;;18.50;99.90;;;;;;4753029;30;20058;-88
2022/07/31 20:56:25;;;;;;;0.20;0.20;;;18.60;99.90;;;;;;4751030;30;20130;-86
2022/07/31 21:02:45;;;;;;;0.60;0.30;;;18.60;99.90;;;;;;4765629;24;20614;31
2022/07/31 21:05:45;;;;;;;0.40;0.30;;;18.60;99.90;;;;;;4713641;30;20503;-87
2022/07/31 21:11:29;;;;;;;0.30;0.30;;;18.80;99.90;;;;;;4732767;30;20257;-86
2022/07/31 21:13:54;;;;;;;1.25;0.30;;;18.60;99.90;;;;;;4732944;30;20139;-90
2022/07/31 21:16:22;;;;;;;0.65;0.45;;;18.60;99.90;;;;;;4734466;30;20060;-87
2022/07/31 21:18:49;;;;;;;0.60;0.40;;;18.60;99.90;;;;;;4734460;30;20571;-87
2022/07/31 21:21:18;;;;;;;4.25;0.90;;;18.60;99.90;;;;;;4751600;30;20040;-88
2022/07/31 21:23:44;;;;;;;1.27;0.60;;;18.60;99.90;;;;;;4749897;30;20062;-87
2022/07/31 21:26:12;;;;;;;1.30;0.80;;;18.60;99.90;;;;;;4749828;30;20064;-85
2022/07/31 21:28:45;;;;;;;1.15;0.70;;;18.50;99.90;;;;;;4749097;30;20103;-86
2022/07/31 21:31:16;;;;;;;4.85;1.10;;;18.60;99.90;;;;;;4745913;30;20533;-87
2022/07/31 21:33:44;;;;;;;1.48;0.80;;;18.60;99.90;;;;;;4746782;30;20485;-88
2022/07/31 21:36:22;;;;;;;1.55;0.90;;;18.60;99.90;;;;;;4736229;30;20502;-87
2022/07/31 21:38:50;;;;;;;3.65;1.08;;;18.40;99.90;;;;;;4741444;30;20055;-88
2022/07/31 21:41:19;;;;;;;2.35;1.17;;;18.60;99.90;;;;;;4733084;30;20053;-88
2022/07/31 21:44:02;;;;;;;2.40;1.63;;;18.60;99.90;;;;;;4718579;30;20423;-87
2022/07/31 21:46:38;;;;;;;8.85;2.10;;;18.60;99.90;;;;;;4734189;30;20529;-86
2022/07/31 21:49:47;;;;;;;3.83;2.08;;;18.60;99.90;;;;;;4737312;30;20092;-85
2022/07/31 21:53:07;;;;;;;;;;;;;;;;;;;;;
2022/07/31 21:58:21;;;;;;;;;;;18.60;99.90;;;;;;2700279;24;20076;-86
2022/07/31 22:00:55;;;;;;;4.95;2.50;;;18.10;99.90;;;;;;4747383;30;20012;-86
2022/07/31 22:03:38;;;;;;;7.28;2.75;;;18.60;99.90;;;;;;4748400;30;20131;-86
2022/07/31 22:09:13;;;;;;;5.28;2.45;;;18.60;99.90;;;;;;4734106;30;20045;-86
2022/07/31 22:19:25;;;;;;;6.10;3.00;;;18.50;99.90;;;;;;4744987;30;20548;-86
2022/07/31 22:22:31;;;;;;;;;;;;;;;;;;;;;
2022/07/31 22:25:27;;;;;;;5.10;2.78;;;18.60;99.90;;;;;;4747502;30;20511;-86
2022/07/31 22:31:40;;;;;;;4.78;3.08;;;18.60;99.90;;;;;;4726712;30;20056;-85
2022/07/31 22:34:48;;;;;;;6.78;1.92;;;18.40;99.90;;;;;;4716452;30;20072;-86
2022/07/31 22:37:17;;;;;;;4.47;2.28;;;18.50;99.90;;;;;;4673249;30;20561;-84
2022/07/31 22:39:58;;;;;;;4.93;1.85;;;18.50;99.90;;;;;;4702283;30;20049;-86
2022/07/31 22:42:27;;;;;;;4.63;1.77;;;18.50;99.90;;;;;;4700846;30;20057;-85
2022/07/31 22:44:59;;;;;;;3.05;1.80;;;18.40;99.90;;;;;;4701959;30;20200;-86
2022/07/31 22:47:26;;;;;;;5.18;1.48;;;18.40;99.90;;;;;;4702201;30;20124;-87
2022/07/31 22:50:02;;;;;;;4.75;1.90;;;18.90;99.90;;;;;;4715943;30;20136;-87
2022/07/31 22:52:54;;;;;;;5.63;1.55;;;18.30;99.90;;;;;;4702212;30;20191;-87
2022/07/31 22:55:31;;;;;;;3.28;1.63;;;18.30;99.90;;;;;;4716711;30;20065;-88
2022/07/31 22:57:56;;;;;;;7.65;1.77;;;18.40;99.90;;;;;;4687404;30;20120;-88
2022/07/31 23:00:22;;;;;;;2.15;1.30;;;18.30;99.90;;;;;;4701987;30;20423;-89
2022/07/31 23:02:53;;;;;;;3.88;1.10;;;18.30;99.90;;;;;;4715797;30;20056;-87
2022/07/31 23:05:42;;;;;;;2.60;1.02;;;18.30;99.90;;;;;;4737356;30;20143;-88
2022/07/31 23:08:22;;;;;;;3.13;0.90;;;18.20;99.90;;;;;;4756446;30;20129;-88
2022/07/31 23:11:29;;;;;;;;;;;;;;;;;;;;;
2022/07/31 23:17:47;;;;;;;3.72;1.00;;;18.20;99.90;;;;;;4746919;30;20098;-87
2022/07/31 23:20:18;;;;;;;1.92;1.15;;;18.20;99.90;;;;;;4736169;30;20513;-88
2022/07/31 23:22:44;;;;;;;3.28;1.70;;;18.20;99.90;;;;;;4744329;30;20184;-88
2022/07/31 23:25:11;;;;;;;2.30;0.70;;;18.20;99.90;;;;;;4742810;30;20108;-87
2022/07/31 23:27:37;;;;;;;1.52;0.60;;;18.20;99.90;;;;;;4752131;30;20379;-87
2022/07/31 23:30:03;;;;;;;1.00;0.50;;;18.20;99.90;;;;;;4744481;30;20056;-86
2022/07/31 23:32:31;;;;;;;1.02;0.50;;;18.10;99.90;;;;;;4736673;30;20061;-87
2022/07/31 23:34:59;;;;;;;2.47;0.90;;;18.10;99.90;;;;;;4741478;30;20090;-88
2022/07/31 23:37:27;;;;;;;1.48;0.68;;;18.00;99.90;;;;;;4751648;30;20063;-86
2022/07/31 23:39:53;;;;;;;1.58;0.73;;;18.10;99.90;;;;;;4750707;30;20104;-87
2022/07/31 23:42:37;;;;;;;0.90;0.52;;;18.10;99.90;;;;;;4752400;30;20063;-87
2022/07/31 23:45:11;;;;;;;1.40;0.55;;;18.10;99.90;;;;;;4751460;30;20084;-86
2022/07/31 23:47:37;;;;;;;1.25;0.52;;;18.00;99.90;;;;;;4751557;30;20483;-87
2022/07/31 23:50:08;;;;;;;1.73;0.50;;;18.10;99.90;;;;;;4738652;30;20056;-87
2022/07/31 23:52:37;;;;;;;0.90;0.70;;;18.10;99.90;;;;;;4735444;30;20049;-86
2022/07/31 23:55:08;;;;;;;0.98;0.57;;;18.00;99.90;;;;;;4735293;30;20045;-86
2022/07/31 23:57:36;;;;;;;0.93;0.50;;;18.10;99.90;;;;;;4734238;30;20591;-86
